createdAt,value
2022-10-28T00:01:26.371Z,11.18
2022-10-28T00:06:26.335Z,11.31
2022-10-28T00:11:26.318Z,11.37
2022-10-28T00:16:26.331Z,11.31
2022-10-28T00:21:26.311Z,11.06
2022-10-28T00:31:26.297Z,11.06
2022-10-28T00:36:26.287Z,10.93
2022-10-28T00:46:26.268Z,10.81
2022-10-28T01:11:26.267Z,11.18
2022-10-28T01:21:26.249Z,11.25
2022-10-28T01:26:26.229Z,11.31
2022-10-28T01:31:26.234Z,11.12
2022-10-28T01:36:26.231Z,11
2022-10-28T01:41:26.240Z,10.81
2022-10-28T01:46:26.241Z,10.87
2022-10-28T01:51:26.211Z,10.68
2022-10-28T01:56:26.241Z,10.93
2022-10-28T02:01:26.328Z,10.93
2022-10-28T02:06:26.210Z,11
2022-10-28T02:11:26.203Z,11.06
2022-10-28T02:16:26.186Z,10.93
2022-10-28T02:21:26.178Z,11.12
2022-10-28T02:26:26.175Z,11.06
2022-10-28T02:31:26.182Z,11.31
2022-10-28T02:36:26.161Z,11.25
2022-10-28T02:41:26.176Z,11.18
2022-10-28T02:46:26.148Z,10.93
2022-10-28T02:56:26.139Z,11
2022-10-28T03:21:26.116Z,11.12
2022-10-28T03:41:26.091Z,11
2022-10-28T03:51:26.103Z,10.68
2022-10-28T03:56:26.093Z,10.62
2022-10-28T04:01:26.300Z,10.68
2022-10-28T04:06:26.078Z,10.5
2022-10-28T04:11:26.064Z,10.56
2022-10-28T04:16:26.067Z,10.62
2022-10-28T04:21:26.074Z,10.56
2022-10-28T04:26:26.069Z,10.56
2022-10-28T04:31:26.056Z,10.31
2022-10-28T04:36:26.055Z,10.43
2022-10-28T04:41:26.041Z,10.18
2022-10-28T04:46:26.041Z,10.18
2022-10-28T04:51:26.033Z,10.18
2022-10-28T04:56:26.030Z,9.87
2022-10-28T05:01:26.115Z,9.93
2022-10-28T05:06:26.013Z,9.68
2022-10-28T05:11:26.014Z,9.75
2022-10-28T05:16:26.019Z,9.62
2022-10-28T05:21:25.990Z,9.68
2022-10-28T05:26:26.006Z,9.37
2022-10-28T05:31:26.000Z,9.37
2022-10-28T05:36:26.005Z,9.25
2022-10-28T05:41:25.985Z,9.43
2022-10-28T05:46:25.975Z,9.62
2022-10-28T05:51:25.982Z,9.87
2022-10-28T05:56:26.039Z,10.12
2022-10-28T06:01:26.025Z,10.25
2022-10-28T06:06:25.961Z,10.31
2022-10-28T06:11:24.420Z,10.68
2022-10-28T06:16:24.438Z,10.93
2022-10-28T06:21:24.414Z,11.25
2022-10-28T06:26:24.421Z,11.43
2022-10-28T06:31:24.432Z,11.75
2022-10-28T06:36:24.405Z,11.5
2022-10-28T06:41:24.406Z,11.56
2022-10-28T06:46:24.409Z,11.75
2022-10-28T06:51:26.145Z,12.06
2022-10-28T06:56:25.921Z,12.25
2022-10-28T07:01:26.026Z,12.43
2022-10-28T07:06:25.930Z,12.56
2022-10-28T07:11:25.947Z,12.43
2022-10-28T07:16:25.924Z,12.62
2022-10-28T07:21:25.921Z,12.62
2022-10-28T07:26:25.921Z,12.87
2022-10-28T07:31:25.907Z,13.31
2022-10-28T07:36:25.897Z,13.31
2022-10-28T07:41:25.901Z,13.5
2022-10-28T07:46:25.895Z,13.5
2022-10-28T07:51:25.898Z,13.62
2022-10-28T07:56:25.929Z,13.5
2022-10-28T08:01:26.018Z,13.93
2022-10-28T08:06:25.846Z,14
2022-10-28T08:11:25.837Z,13.87
2022-10-28T08:16:25.831Z,14.37
2022-10-28T08:21:25.807Z,14.5
2022-10-28T08:26:25.812Z,14.81
2022-10-28T08:31:25.816Z,14.68
2022-10-28T08:36:25.799Z,14.93
2022-10-28T08:41:25.799Z,15.31
2022-10-28T08:46:25.801Z,15.12
2022-10-28T08:51:25.788Z,15.75
2022-10-28T08:56:25.785Z,15.81
2022-10-28T09:01:25.928Z,16.18
2022-10-28T09:06:25.776Z,16
2022-10-28T09:11:26.451Z,16.25
2022-10-28T09:16:25.741Z,16.62
2022-10-28T09:21:25.747Z,16.87
2022-10-28T09:26:25.752Z,16.87
2022-10-28T09:31:25.730Z,17
2022-10-28T09:36:25.736Z,17.18
2022-10-28T09:41:25.730Z,17.31
2022-10-28T09:46:25.720Z,17.37
2022-10-28T09:51:25.716Z,17.25
2022-10-28T09:56:25.747Z,17.62
2022-10-28T10:01:25.715Z,17.62
2022-10-28T10:06:25.708Z,17.68
2022-10-28T10:11:25.702Z,17.62
2022-10-28T10:16:25.664Z,17.62
2022-10-28T10:21:25.683Z,17.5
2022-10-28T10:26:25.660Z,17.56
2022-10-28T10:31:25.654Z,17.87
2022-10-28T10:36:25.647Z,18.06
2022-10-28T10:41:25.660Z,18.62
2022-10-28T10:46:25.634Z,18.62
2022-10-28T10:51:25.642Z,18.87
2022-10-28T10:56:25.631Z,18.68
2022-10-28T11:01:25.697Z,19.06
2022-10-28T11:06:25.617Z,19.06
2022-10-28T11:11:25.624Z,19
2022-10-28T11:16:25.605Z,18.93
2022-10-28T11:21:25.625Z,19.06
2022-10-28T11:26:25.608Z,19.37
2022-10-28T11:31:25.588Z,19.68
2022-10-28T11:36:25.585Z,19.68
2022-10-28T11:41:25.587Z,19.75
2022-10-28T11:46:25.551Z,19.06
2022-10-28T11:51:25.567Z,18.93
2022-10-28T11:56:25.565Z,18.87
2022-10-28T12:01:25.613Z,18.93
2022-10-28T12:06:25.537Z,19
2022-10-28T12:11:25.528Z,19.31
2022-10-28T12:16:25.549Z,19.18
2022-10-28T12:21:25.645Z,19.37
2022-10-28T12:26:25.507Z,19.56
2022-10-28T12:31:25.516Z,19.75
2022-10-28T12:36:25.508Z,19.75
2022-10-28T12:41:25.481Z,20
2022-10-28T12:46:25.480Z,19.87
2022-10-28T12:51:25.504Z,19.87
2022-10-28T12:56:25.519Z,20.06
2022-10-28T13:01:25.556Z,19.87
2022-10-28T13:11:25.458Z,20
2022-10-28T13:16:25.448Z,20
2022-10-28T13:21:25.452Z,20.25
2022-10-28T13:26:25.476Z,20.62
2022-10-28T13:31:25.423Z,20.87
2022-10-28T13:36:25.426Z,21.25
2022-10-28T13:41:25.434Z,21.06
2022-10-28T13:46:25.409Z,20.93
2022-10-28T13:51:25.438Z,21.06
2022-10-28T13:56:25.391Z,20.81
2022-10-28T14:01:25.505Z,20.81
2022-10-28T14:06:25.432Z,20.5
2022-10-28T14:11:25.374Z,20.18
2022-10-28T14:16:25.373Z,20
2022-10-28T14:21:25.363Z,19.93
2022-10-28T14:31:25.358Z,19.31
2022-10-28T14:36:25.360Z,19.12
2022-10-28T14:46:25.332Z,18.62
2022-10-28T15:01:25.508Z,17.43
2022-10-28T15:06:25.289Z,17.12
2022-10-28T15:11:25.300Z,17.06
2022-10-28T15:26:25.269Z,16.68
2022-10-28T15:31:25.270Z,16.56
2022-10-28T15:41:25.261Z,15.93
2022-10-28T15:46:25.250Z,15.62
2022-10-28T15:51:25.262Z,15.37
2022-10-28T15:56:25.248Z,15.12
2022-10-28T16:01:25.402Z,15
2022-10-28T16:06:25.218Z,14.62
2022-10-28T16:11:25.238Z,14.56
2022-10-28T16:16:25.239Z,14.56
2022-10-28T16:21:25.202Z,14.68
2022-10-28T16:26:25.194Z,14.5
2022-10-28T16:31:25.193Z,14.25
2022-10-28T16:36:25.199Z,14.43
2022-10-28T16:41:25.191Z,14.37
2022-10-28T16:46:25.322Z,14.31
2022-10-28T16:51:25.277Z,14.12
2022-10-28T17:06:25.143Z,14.93
2022-10-28T17:21:25.125Z,14.31
2022-10-28T17:26:25.128Z,14.18
2022-10-28T17:31:25.458Z,14.12
2022-10-28T18:06:25.073Z,13.56
2022-10-28T18:11:25.074Z,13.5
2022-10-28T18:16:25.075Z,13.18
2022-10-28T18:21:25.070Z,12.87
2022-10-28T18:26:25.051Z,12.87
2022-10-28T18:31:25.058Z,12.87
2022-10-28T18:36:25.037Z,12.75
2022-10-28T18:41:25.050Z,12.68
2022-10-28T18:46:25.022Z,12.93
2022-10-28T18:51:25.046Z,13.31
2022-10-28T18:56:25.033Z,13.06
2022-10-28T19:01:25.143Z,13.06
2022-10-28T19:06:25.026Z,13.12
2022-10-28T19:11:25.001Z,13.18
2022-10-28T19:16:25.019Z,13.43
2022-10-28T19:21:25.025Z,13.62
2022-10-28T19:26:24.998Z,13.87
2022-10-28T19:31:24.989Z,13.93
2022-10-28T19:36:24.979Z,14.25
2022-10-28T19:41:24.962Z,13.81
2022-10-28T19:46:24.974Z,13.68
2022-10-28T19:51:24.966Z,13.87
2022-10-28T19:56:24.959Z,14.12
2022-10-28T20:01:25.172Z,14.37
2022-10-28T20:06:24.952Z,14.31
2022-10-28T20:11:26.146Z,14.06
2022-10-28T20:16:24.941Z,13.75
2022-10-28T20:21:24.940Z,14.18
2022-10-28T20:26:24.940Z,14.31
2022-10-28T20:31:24.937Z,14.43
2022-10-28T20:36:24.932Z,14.93
2022-10-28T20:41:24.904Z,14.93
2022-10-28T20:46:24.905Z,15.06
2022-10-28T20:51:24.901Z,15
2022-10-28T20:56:24.892Z,15.25
2022-10-28T21:01:25.026Z,15.43
2022-10-28T21:06:24.881Z,15.31
2022-10-28T21:11:24.875Z,15.43
2022-10-28T21:16:24.892Z,15.37
2022-10-28T21:21:24.857Z,15.37
2022-10-28T21:26:24.859Z,15.5
2022-10-28T21:31:24.855Z,15.37
2022-10-28T21:36:24.860Z,15.25
2022-10-28T21:41:24.860Z,15.31
2022-10-28T21:46:24.838Z,15
2022-10-28T21:51:24.842Z,14.87
2022-10-28T21:56:24.825Z,14.87
2022-10-28T22:16:24.777Z,14.75
2022-10-28T22:21:24.799Z,14.81
2022-10-28T22:26:24.778Z,14.68
2022-10-28T22:31:24.783Z,14.75
2022-10-28T22:36:24.769Z,14.81
2022-10-28T22:41:24.764Z,14.75
2022-10-28T22:46:24.764Z,14.5
2022-10-28T22:51:24.743Z,14.43
2022-10-28T22:56:24.752Z,14.56
2022-10-28T23:01:24.823Z,14.68
2022-10-28T23:06:24.738Z,14.87
2022-10-28T23:11:24.759Z,14.68
2022-10-28T23:16:24.745Z,14.87
2022-10-28T23:21:24.740Z,14.81
2022-10-28T23:31:24.710Z,14.93
2022-10-28T23:36:24.689Z,14.87
2022-10-28T23:41:24.690Z,14.87
2022-10-28T23:46:24.687Z,15
2022-10-28T23:51:24.787Z,14.93
2022-10-28T23:56:24.663Z,14.81
